createdAt,value
2019-06-10T00:02:06.937Z,9.80
2019-06-10T00:04:35.972Z,9.80
2019-06-10T00:07:05.857Z,9.80
2019-06-10T00:09:35.475Z,9.80
2019-06-10T00:12:06.441Z,9.80
2019-06-10T00:14:38.690Z,9.80
2019-06-10T00:17:11.721Z,9.80
2019-06-10T00:19:42.351Z,9.80
2019-06-10T00:22:11.839Z,9.80
2019-06-10T00:24:41.068Z,9.80
2019-06-10T00:27:11.796Z,9.80
2019-06-10T00:29:46.718Z,9.80
2019-06-10T00:32:16.427Z,9.70
2019-06-10T00:34:45.351Z,9.70
2019-06-10T00:37:15.895Z,9.70
2019-06-10T00:39:44.867Z,9.70
2019-06-10T00:42:15.210Z,9.80
2019-06-10T00:44:44.392Z,9.80
2019-06-10T00:47:15.084Z,9.90
2019-06-10T00:49:45.283Z,9.90
2019-06-10T00:52:14.186Z,10.00
2019-06-10T00:54:43.170Z,9.90
2019-06-10T00:57:13.658Z,9.90
2019-06-10T00:59:42.842Z,9.90
2019-06-10T01:02:14.039Z,9.90
2019-06-10T01:04:42.331Z,9.90
2019-06-10T01:07:13.905Z,10.00
2019-06-10T01:09:41.803Z,10.00
2019-06-10T01:12:14.727Z,10.00
2019-06-10T01:14:43.022Z,10.00
2019-06-10T01:17:15.225Z,10.00
2019-06-10T01:19:44.122Z,10.00
2019-06-10T01:22:14.195Z,10.00
2019-06-10T01:24:43.912Z,10.00
2019-06-10T01:27:14.820Z,10.00
2019-06-10T01:29:44.515Z,10.00
2019-06-10T01:32:14.936Z,10.00
2019-06-10T01:34:47.568Z,10.00
2019-06-10T01:37:17.655Z,10.00
2019-06-10T01:39:48.124Z,10.00
2019-06-10T01:42:17.267Z,10.00
2019-06-10T01:44:46.196Z,10.00
2019-06-10T01:47:16.162Z,10.10
2019-06-10T01:49:45.832Z,10.10
2019-06-10T01:52:15.464Z,10.10
2019-06-10T01:54:45.239Z,10.10
2019-06-10T01:57:15.355Z,10.10
2019-06-10T01:59:44.786Z,10.00
2019-06-10T02:02:23.405Z,10.10
2019-06-10T02:04:53.115Z,10.10
2019-06-10T02:07:22.964Z,10.10
2019-06-10T02:09:52.286Z,10.10
2019-06-10T02:12:24.187Z,10.10
2019-06-10T02:14:53.439Z,10.10
2019-06-10T02:17:23.967Z,10.10
2019-06-10T02:19:54.660Z,10.20
2019-06-10T02:22:28.073Z,10.10
2019-06-10T02:24:57.076Z,10.20
2019-06-10T02:27:26.029Z,10.10
2019-06-10T02:29:55.002Z,10.10
2019-06-10T02:32:31.986Z,10.10
2019-06-10T02:35:08.128Z,10.10
2019-06-10T02:37:31.736Z,10.10
2019-06-10T02:39:55.863Z,10.10
2019-06-10T02:42:35.670Z,10.10
2019-06-10T02:45:03.984Z,10.10
2019-06-10T02:47:37.660Z,10.10
2019-06-10T02:50:08.782Z,10.20
2019-06-10T02:52:38.334Z,10.20
2019-06-10T02:55:07.400Z,10.20
2019-06-10T02:57:40.470Z,10.10
2019-06-10T03:00:20.942Z,10.20
2019-06-10T03:02:45.112Z,10.20
2019-06-10T03:05:14.343Z,10.10
2019-06-10T03:07:44.455Z,10.10
2019-06-10T03:10:13.774Z,10.20
2019-06-10T03:12:42.958Z,10.20
2019-06-10T03:15:12.587Z,10.20
2019-06-10T03:17:42.902Z,10.20
2019-06-10T03:20:12.454Z,10.20
2019-06-10T03:22:42.291Z,10.20
2019-06-10T03:25:13.161Z,10.20
2019-06-10T03:27:42.545Z,10.20
2019-06-10T03:30:20.120Z,10.20
2019-06-10T03:32:46.834Z,10.20
2019-06-10T03:35:17.378Z,10.30
2019-06-10T03:37:46.794Z,10.30
2019-06-10T03:40:23.211Z,10.30
2019-06-10T03:42:48.657Z,10.30
2019-06-10T03:45:19.038Z,10.30
2019-06-10T03:47:48.273Z,10.30
2019-06-10T03:50:17.264Z,10.30
2019-06-10T03:52:46.294Z,10.30
2019-06-10T03:55:24.874Z,10.30
2019-06-10T03:57:53.528Z,10.40
2019-06-10T04:00:24.500Z,10.40
2019-06-10T04:02:54.290Z,10.40
2019-06-10T04:05:25.354Z,10.30
2019-06-10T04:07:53.761Z,10.40
2019-06-10T04:10:25.009Z,10.40
2019-06-10T04:12:54.893Z,10.40
2019-06-10T04:15:28.415Z,10.40
2019-06-10T04:17:57.252Z,10.40
2019-06-10T04:20:29.443Z,10.30
2019-06-10T04:22:58.296Z,10.40
2019-06-10T04:25:29.394Z,10.40
2019-06-10T04:27:57.830Z,10.40
2019-06-10T04:30:29.618Z,10.40
2019-06-10T04:32:58.660Z,10.40
2019-06-10T04:35:29.252Z,10.40
2019-06-10T04:37:58.220Z,10.40
2019-06-10T04:40:28.139Z,10.40
2019-06-10T04:42:59.519Z,10.50
2019-06-10T04:45:29.198Z,10.50
2019-06-10T04:47:58.416Z,10.50
2019-06-10T04:50:37.224Z,10.50
2019-06-10T04:52:58.013Z,10.50
2019-06-10T04:55:27.789Z,10.50
2019-06-10T04:57:57.685Z,10.50
2019-06-10T05:00:27.647Z,10.50
2019-06-10T05:02:57.502Z,10.50
2019-06-10T05:05:27.277Z,10.50
2019-06-10T05:07:57.079Z,10.50
2019-06-10T05:10:33.201Z,10.60
2019-06-10T05:13:03.147Z,10.60
2019-06-10T05:15:34.811Z,10.70
2019-06-10T05:18:03.367Z,10.70
2019-06-10T05:20:46.824Z,10.70
2019-06-10T05:23:03.165Z,10.70
2019-06-10T05:25:32.765Z,10.80
2019-06-10T05:28:02.919Z,10.80
2019-06-10T05:30:34.026Z,10.80
2019-06-10T05:33:03.012Z,10.80
2019-06-10T05:35:33.955Z,10.90
2019-06-10T05:38:05.310Z,10.90
2019-06-10T05:40:34.393Z,10.90
2019-06-10T05:43:03.322Z,10.90
2019-06-10T05:45:34.902Z,10.90
2019-06-10T05:48:02.975Z,11.00
2019-06-10T05:50:33.555Z,11.00
2019-06-10T05:53:04.765Z,11.00
2019-06-10T05:55:35.282Z,11.10
2019-06-10T05:58:04.290Z,11.10
2019-06-10T06:00:35.330Z,11.20
2019-06-10T06:03:03.760Z,11.20
2019-06-10T06:05:34.508Z,11.30
2019-06-10T06:08:08.382Z,11.40
2019-06-10T06:10:35.982Z,11.40
2019-06-10T06:13:05.371Z,11.40
2019-06-10T06:15:35.780Z,11.50
2019-06-10T06:18:10.218Z,11.50
2019-06-10T06:20:37.719Z,11.50
2019-06-10T06:23:08.920Z,11.50
2019-06-10T06:25:42.218Z,11.50
2019-06-10T06:28:07.381Z,11.50
2019-06-10T06:30:37.593Z,11.50
2019-06-10T06:33:06.796Z,11.50
2019-06-10T06:35:42.522Z,11.50
2019-06-10T06:38:06.309Z,11.40
2019-06-10T06:40:37.189Z,11.40
2019-06-10T06:43:06.211Z,11.40
2019-06-10T06:45:42.825Z,11.40
2019-06-10T06:48:08.989Z,11.60
2019-06-10T06:50:59.083Z,11.70
2019-06-10T06:53:21.345Z,11.90
2019-06-10T06:55:43.164Z,12.10
2019-06-10T06:58:12.585Z,12.20
2019-06-10T07:00:59.801Z,12.30
2019-06-10T07:03:15.246Z,12.40
2019-06-10T07:05:45.910Z,12.40
2019-06-10T07:08:17.456Z,12.40
2019-06-10T07:10:47.244Z,12.30
2019-06-10T07:13:16.146Z,12.40
2019-06-10T07:15:49.020Z,12.40
2019-06-10T07:18:19.598Z,12.40
2019-06-10T07:20:48.614Z,12.30
2019-06-10T07:23:17.602Z,12.40
2019-06-10T07:25:47.456Z,12.50
2019-06-10T07:31:19.520Z,12.50
2019-06-10T07:33:38.995Z,12.50
2019-06-10T07:36:08.640Z,12.40
2019-06-10T07:38:39.895Z,12.50
2019-06-10T07:41:14.883Z,12.60
2019-06-10T07:43:49.493Z,12.70
2019-06-10T07:46:14.389Z,12.70
2019-06-10T07:48:47.896Z,12.80
2019-06-10T07:51:16.544Z,12.80
2019-06-10T07:53:46.819Z,12.90
2019-06-10T07:56:15.962Z,13.10
2019-06-10T07:58:47.548Z,13.10
2019-06-10T08:01:17.413Z,13.20
2019-06-10T08:03:46.721Z,13.40
2019-06-10T08:06:16.021Z,13.40
2019-06-10T08:08:45.432Z,13.60
2019-06-10T08:11:14.933Z,13.70
2019-06-10T08:13:46.131Z,14.00
2019-06-10T08:16:14.748Z,14.50
2019-06-10T08:19:12.326Z,15.40
2019-06-10T08:21:15.421Z,16.10
2019-06-10T08:23:47.478Z,16.40
2019-06-10T08:26:19.376Z,15.90
2019-06-10T08:28:48.533Z,15.60
2019-06-10T08:31:17.496Z,15.30
2019-06-10T08:33:49.158Z,15.10
2019-06-10T08:36:22.262Z,15.60
2019-06-10T08:38:52.745Z,15.40
2019-06-10T08:41:23.086Z,15.10
2019-06-10T08:43:53.086Z,14.70
2019-06-10T08:46:22.538Z,14.40
2019-06-10T08:48:57.336Z,14.30
2019-06-10T08:51:26.322Z,14.10
2019-06-10T08:53:55.607Z,14.00
2019-06-10T08:56:26.741Z,14.50
2019-06-10T08:58:57.135Z,15.40
2019-06-10T09:01:28.020Z,16.50
2019-06-10T09:03:59.566Z,17.20
2019-06-10T09:06:28.516Z,16.90
2019-06-10T09:08:57.443Z,16.20
2019-06-10T09:11:26.585Z,15.70
2019-06-10T09:13:55.639Z,15.40
2019-06-10T09:16:24.526Z,15.00
2019-06-10T09:19:02.109Z,14.90
2019-06-10T09:21:33.021Z,14.70
2019-06-10T09:24:03.907Z,14.70
2019-06-10T09:26:33.702Z,14.70
2019-06-10T09:29:03.164Z,14.70
2019-06-10T09:31:33.169Z,14.60
2019-06-10T09:34:04.000Z,14.60
2019-06-10T09:36:32.829Z,14.60
2019-06-10T09:39:03.988Z,14.50
2019-06-10T09:41:40.043Z,14.50
2019-06-10T09:44:03.357Z,14.40
2019-06-10T09:46:35.380Z,14.20
2019-06-10T09:49:12.711Z,14.20
2019-06-10T09:51:48.388Z,14.20
2019-06-10T09:54:33.749Z,14.10
2019-06-10T09:57:03.300Z,14.10
2019-06-10T09:59:32.647Z,14.10
2019-06-10T10:02:03.716Z,14.10
2019-06-10T10:04:37.275Z,14.10
2019-06-10T10:07:06.571Z,14.10
2019-06-10T10:09:37.212Z,14.20
2019-06-10T10:12:06.687Z,14.20
2019-06-10T10:14:35.939Z,14.20
2019-06-10T10:17:05.103Z,14.30
2019-06-10T10:19:34.446Z,14.40
2019-06-10T10:22:03.728Z,14.50
2019-06-10T10:24:34.154Z,14.70
2019-06-10T10:27:08.263Z,14.90
2019-06-10T10:29:34.006Z,15.20
2019-06-10T10:32:03.797Z,15.40
2019-06-10T10:34:33.382Z,16.00
2019-06-10T10:37:04.072Z,16.20
2019-06-10T10:39:32.961Z,16.00
2019-06-10T10:42:03.829Z,15.50
2019-06-10T10:44:32.774Z,15.10
2019-06-10T10:47:03.665Z,14.70
2019-06-10T10:49:33.150Z,14.30
2019-06-10T10:52:02.634Z,14.00
2019-06-10T10:54:35.968Z,13.70
2019-06-10T10:57:02.582Z,13.50
2019-06-10T10:59:33.201Z,13.40
2019-06-10T11:02:02.483Z,13.20
2019-06-10T11:04:32.843Z,13.10
2019-06-10T11:07:03.892Z,13.00
2019-06-10T11:09:33.167Z,12.90
2019-06-10T11:12:04.732Z,12.80
2019-06-10T11:14:34.228Z,12.70
2019-06-10T11:17:03.335Z,12.70
2019-06-10T11:19:33.003Z,12.60
2019-06-10T11:22:02.957Z,12.50
2019-06-10T11:24:37.748Z,12.50
2019-06-10T11:27:03.344Z,12.40
2019-06-10T11:29:42.116Z,12.40
2019-06-10T11:32:11.068Z,12.30
2019-06-10T11:34:42.746Z,12.20
2019-06-10T11:37:12.647Z,12.20
2019-06-10T11:39:42.623Z,12.10
2019-06-10T11:42:13.221Z,12.00
2019-06-10T11:44:42.747Z,12.00
2019-06-10T11:47:13.165Z,12.00
2019-06-10T11:49:43.498Z,12.10
2019-06-10T11:52:15.451Z,12.10
2019-06-10T11:54:55.768Z,12.10
2019-06-10T11:57:16.681Z,12.10
2019-06-10T11:59:48.408Z,12.10
2019-06-10T12:02:17.362Z,12.10
2019-06-10T12:04:46.268Z,12.20
2019-06-10T12:07:15.253Z,12.20
2019-06-10T12:09:44.687Z,12.20
2019-06-10T12:12:13.791Z,12.40
2019-06-10T12:14:43.250Z,12.40
2019-06-10T12:17:32.393Z,12.50
2019-06-10T12:19:45.896Z,12.50
2019-06-10T12:22:18.143Z,12.40
2019-06-10T12:24:47.047Z,12.40
2019-06-10T12:27:16.031Z,12.40
2019-06-10T12:29:44.986Z,12.40
2019-06-10T12:32:13.923Z,12.40
2019-06-10T12:34:46.195Z,12.30
2019-06-10T12:37:15.903Z,12.30
2019-06-10T12:39:45.972Z,12.20
2019-06-10T12:42:14.840Z,12.10
2019-06-10T12:44:43.830Z,12.10
2019-06-10T12:47:12.816Z,12.20
2019-06-10T12:49:42.769Z,12.20
2019-06-10T12:52:12.903Z,12.30
2019-06-10T12:54:42.353Z,12.40
2019-06-10T12:57:15.579Z,12.40
2019-06-10T12:59:43.365Z,12.30
2019-06-10T13:02:22.781Z,12.20
2019-06-10T13:04:45.128Z,12.00
2019-06-10T13:07:15.426Z,12.00
2019-06-10T13:09:47.351Z,12.00
2019-06-10T13:12:16.389Z,12.10
2019-06-10T13:14:45.365Z,12.10
2019-06-10T13:17:14.297Z,12.20
2019-06-10T13:19:43.431Z,12.30
2019-06-10T13:22:12.654Z,12.40
2019-06-10T13:24:42.339Z,12.50
2019-06-10T13:27:14.626Z,12.60
2019-06-10T13:29:43.960Z,12.80
2019-06-10T13:32:12.978Z,12.90
2019-06-10T13:34:43.210Z,13.00
2019-06-10T13:37:16.008Z,13.00
2019-06-10T13:39:43.141Z,13.10
2019-06-10T13:42:13.664Z,13.20
2019-06-10T13:44:42.799Z,13.50
2019-06-10T13:47:14.820Z,13.70
2019-06-10T13:49:42.929Z,13.80
2019-06-10T13:52:16.451Z,13.70
2019-06-10T13:54:45.191Z,13.70
2019-06-10T13:57:13.842Z,13.60
2019-06-10T13:59:46.157Z,13.50
2019-06-10T14:02:13.550Z,13.30
2019-06-10T14:04:42.495Z,13.10
2019-06-10T14:07:17.379Z,13.00
2019-06-10T14:09:44.930Z,12.80
2019-06-10T14:12:17.549Z,12.70
2019-06-10T14:14:44.428Z,12.60
2019-06-10T14:17:19.052Z,12.40
2019-06-10T14:19:45.902Z,12.30
2019-06-10T14:22:16.113Z,12.20
2019-06-10T14:24:46.576Z,12.00
2019-06-10T14:27:19.161Z,11.90
2019-06-10T14:29:46.131Z,11.80
2019-06-10T14:32:15.793Z,11.70
2019-06-10T14:34:44.853Z,11.60
2019-06-10T14:37:15.527Z,11.50
2019-06-10T14:39:44.315Z,11.50
2019-06-10T14:42:15.003Z,11.50
2019-06-10T14:44:43.824Z,11.40
2019-06-10T14:47:15.496Z,11.40
2019-06-10T14:49:44.392Z,11.40
2019-06-10T14:52:16.806Z,11.40
2019-06-10T14:54:48.685Z,11.40
2019-06-10T15:00:15.668Z,11.40
2019-06-10T15:02:43.971Z,11.40
2019-06-10T15:05:17.371Z,11.40
2019-06-10T15:07:46.441Z,11.40
2019-06-10T15:10:17.695Z,11.40
2019-06-10T15:12:46.094Z,11.40
2019-06-10T15:15:16.236Z,11.40
2019-06-10T15:17:48.049Z,11.40
2019-06-10T15:20:17.217Z,11.40
2019-06-10T15:25:48.966Z,11.50
2019-06-10T15:28:06.440Z,11.70
2019-06-10T15:30:39.722Z,11.80
2019-06-10T15:33:08.672Z,11.90
2019-06-10T15:35:42.760Z,12.00
2019-06-10T15:38:14.797Z,12.10
2019-06-10T15:40:43.307Z,12.10
2019-06-10T15:43:13.715Z,12.10
2019-06-10T15:45:43.299Z,12.10
2019-06-10T15:48:17.256Z,12.10
2019-06-10T15:50:45.453Z,12.10
2019-06-10T15:53:17.566Z,12.00
2019-06-10T15:56:09.300Z,12.00
2019-06-10T15:58:19.929Z,12.00
2019-06-10T16:00:49.552Z,12.10
2019-06-10T16:03:20.265Z,12.20
2019-06-10T16:05:52.468Z,12.10
2019-06-10T16:08:20.627Z,12.30
2019-06-10T16:10:52.532Z,12.40
2019-06-10T16:13:25.535Z,12.50
2019-06-10T16:15:55.037Z,12.50
2019-06-10T16:21:15.662Z,12.50
2019-06-10T16:23:45.067Z,12.70
2019-06-10T16:26:14.873Z,12.80
2019-06-10T16:28:44.635Z,13.00
2019-06-10T16:31:18.288Z,13.10
2019-06-10T16:33:49.243Z,13.30
2019-06-10T16:36:18.963Z,13.50
2019-06-10T16:38:47.946Z,13.50
2019-06-10T16:41:17.525Z,13.50
2019-06-10T16:43:46.749Z,13.50
2019-06-10T16:46:18.392Z,13.50
2019-06-10T16:48:52.630Z,13.40
2019-06-10T16:51:21.594Z,13.30
2019-06-10T16:53:52.899Z,13.30
2019-06-10T16:56:27.819Z,13.20
2019-06-10T16:58:56.935Z,13.10
2019-06-10T17:01:29.944Z,13.10
2019-06-10T17:03:58.241Z,13.00
2019-06-10T17:06:27.293Z,13.00
2019-06-10T17:08:56.227Z,13.00
2019-06-10T17:11:28.426Z,12.90
2019-06-10T17:13:55.714Z,13.00
2019-06-10T17:16:26.069Z,13.00
2019-06-10T17:18:55.265Z,13.10
2019-06-10T17:21:27.961Z,13.20
2019-06-10T17:23:55.833Z,13.10
2019-06-10T17:26:30.778Z,13.20
2019-06-10T17:28:55.271Z,13.30
2019-06-10T17:31:30.470Z,13.20
2019-06-10T17:34:02.536Z,13.10
2019-06-10T17:36:32.671Z,13.10
2019-06-10T17:39:02.927Z,13.00
2019-06-10T17:41:35.035Z,13.10
2019-06-10T17:44:02.995Z,13.10
2019-06-10T17:46:43.762Z,13.00
2019-06-10T17:49:13.076Z,13.00
2019-06-10T17:51:43.277Z,12.90
2019-06-10T17:54:22.208Z,12.90
2019-06-10T17:56:48.199Z,12.90
2019-06-10T17:59:18.221Z,12.80
2019-06-10T18:01:52.288Z,12.70
2019-06-10T18:04:22.593Z,12.70
2019-06-10T18:06:52.892Z,12.60
2019-06-10T18:09:23.164Z,12.50
2019-06-10T18:11:54.061Z,12.50
2019-06-10T18:14:24.451Z,12.40
2019-06-10T18:16:54.301Z,12.40
2019-06-10T18:19:24.229Z,12.30
2019-06-10T18:21:53.303Z,12.30
2019-06-10T18:24:24.333Z,12.40
2019-06-10T18:26:52.964Z,12.40
2019-06-10T18:29:22.959Z,12.40
2019-06-10T18:31:54.774Z,12.30
2019-06-10T18:34:23.621Z,12.30
2019-06-10T18:36:53.288Z,12.20
2019-06-10T18:39:22.837Z,12.10
2019-06-10T18:41:52.906Z,12.10
2019-06-10T18:44:24.148Z,12.20
2019-06-10T18:46:55.626Z,12.20
2019-06-10T18:49:24.606Z,12.10
2019-06-10T18:51:55.108Z,12.00
2019-06-10T18:54:24.012Z,11.80
2019-06-10T18:56:57.644Z,11.60
2019-06-10T18:59:27.994Z,11.50
2019-06-10T19:01:57.004Z,11.40
2019-06-10T19:04:26.155Z,11.30
2019-06-10T19:06:55.068Z,11.20
2019-06-10T19:09:23.946Z,11.20
2019-06-10T19:11:53.539Z,11.20
2019-06-10T19:14:23.140Z,11.20
2019-06-10T19:16:53.666Z,11.30
2019-06-10T19:19:23.399Z,11.30
2019-06-10T19:22:02.720Z,11.30
2019-06-10T19:24:25.011Z,11.30
2019-06-10T19:26:53.731Z,11.30
2019-06-10T19:29:33.725Z,11.40
2019-06-10T19:31:53.220Z,11.30
2019-06-10T19:34:25.232Z,11.50
2019-06-10T19:36:54.256Z,11.40
2019-06-10T19:39:23.793Z,11.40
2019-06-10T19:41:53.104Z,11.20
2019-06-10T19:44:25.167Z,11.10
2019-06-10T19:46:54.036Z,11.00
2019-06-10T19:49:22.914Z,10.90
2019-06-10T19:51:52.660Z,10.80
2019-06-10T19:54:21.635Z,10.70
2019-06-10T19:56:52.384Z,10.70
2019-06-10T19:59:23.068Z,10.50
2019-06-10T20:01:53.904Z,10.50
2019-06-10T20:04:22.666Z,10.40
2019-06-10T20:06:53.765Z,10.40
2019-06-10T20:09:22.728Z,10.30
2019-06-10T20:11:54.752Z,10.20
2019-06-10T20:14:23.683Z,10.00
2019-06-10T20:16:52.902Z,9.80
2019-06-10T20:19:22.400Z,9.70
2019-06-10T20:21:52.355Z,9.70
2019-06-10T20:24:22.224Z,9.70
2019-06-10T20:26:53.039Z,9.70
2019-06-10T20:29:22.271Z,9.70
2019-06-10T20:31:52.353Z,9.70
2019-06-10T20:34:25.790Z,9.70
2019-06-10T20:36:53.770Z,9.70
2019-06-10T20:39:24.869Z,9.60
2019-06-10T20:41:55.558Z,9.50
2019-06-10T20:44:25.216Z,9.50
2019-06-10T20:46:55.677Z,9.40
2019-06-10T20:49:24.557Z,9.30
2019-06-10T20:52:06.735Z,9.20
2019-06-10T20:54:25.491Z,9.10
2019-06-10T20:56:54.365Z,9.00
2019-06-10T20:59:26.018Z,8.90
2019-06-10T21:01:53.922Z,8.80
2019-06-10T21:04:24.600Z,8.70
2019-06-10T21:06:55.954Z,8.80
2019-06-10T21:09:25.986Z,8.80
2019-06-10T21:11:55.013Z,8.70
2019-06-10T21:14:24.029Z,8.70
2019-06-10T21:19:44.934Z,8.80
2019-06-10T21:22:13.877Z,8.80
2019-06-10T21:24:42.973Z,8.80
2019-06-10T21:27:13.328Z,8.80
2019-06-10T21:29:44.025Z,8.80
2019-06-10T21:32:13.493Z,8.90
2019-06-10T21:34:44.765Z,8.90
2019-06-10T21:37:15.836Z,9.00
2019-06-10T21:39:47.648Z,9.00
2019-06-10T21:42:15.470Z,9.00
2019-06-10T21:44:44.419Z,9.00
2019-06-10T21:47:15.066Z,9.10
2019-06-10T21:49:47.031Z,9.10
2019-06-10T21:55:08.771Z,9.10
2019-06-10T21:57:37.755Z,9.10
2019-06-10T22:00:17.407Z,9.10
2019-06-10T22:02:47.159Z,9.10
2019-06-10T22:05:17.155Z,9.10
2019-06-10T22:07:47.316Z,9.10
2019-06-10T22:10:16.868Z,9.10
2019-06-10T22:12:46.046Z,8.90
2019-06-10T22:15:15.446Z,8.80
2019-06-10T22:20:32.586Z,8.70
2019-06-10T22:23:04.815Z,8.60
2019-06-10T22:25:33.918Z,8.60
2019-06-10T22:28:02.940Z,8.50
2019-06-10T22:30:36.294Z,8.50
2019-06-10T22:33:12.281Z,8.50
2019-06-10T22:35:42.450Z,8.50
2019-06-10T22:38:13.033Z,8.50
2019-06-10T22:40:43.430Z,8.50
2019-06-10T22:43:12.921Z,8.60
2019-06-10T22:45:43.801Z,8.60
2019-06-10T22:48:12.705Z,8.60
2019-06-10T22:50:43.679Z,8.60
2019-06-10T22:53:12.787Z,8.60
2019-06-10T22:55:43.311Z,8.60
2019-06-10T22:58:14.501Z,8.60
2019-06-10T23:00:43.703Z,8.50
2019-06-10T23:03:13.185Z,8.40
2019-06-10T23:05:45.895Z,8.30
2019-06-10T23:08:14.822Z,8.20
2019-06-10T23:10:45.397Z,8.10
2019-06-10T23:13:17.024Z,7.90
2019-06-10T23:15:44.948Z,7.80
2019-06-10T23:18:15.991Z,7.60
2019-06-10T23:20:47.152Z,7.60
2019-06-10T23:23:16.799Z,7.60
2019-06-10T23:25:46.514Z,7.70
2019-06-10T23:28:15.383Z,7.70
2019-06-10T23:30:44.397Z,7.80
2019-06-10T23:33:13.291Z,7.80
2019-06-10T23:35:43.003Z,7.90
2019-06-10T23:38:13.219Z,8.00
2019-06-10T23:40:44.418Z,8.00
2019-06-10T23:43:16.569Z,8.10
2019-06-10T23:45:45.446Z,8.10
2019-06-10T23:48:14.343Z,8.10
2019-06-10T23:50:48.419Z,8.20
2019-06-10T23:53:17.307Z,8.30
2019-06-10T23:55:47.016Z,8.30
2019-06-10T23:58:15.969Z,8.30
